Winside, Nebraska
Current Conditions -  °F | °C
As of 7:35 PM on Friday 19 Dec 2014 (Local Time) from KLCG Reporting Station
Overcast Overcast  
Wind Chill: 26°   Ceiling: 1100
Heat Index: 33°   Visibility: 10mi
Dew Point: 30°   Wind: 8mph
Humidity: 88%   Direction: 190°S
Pressure: 30.08"   Gusts: NA
Location:  42.18°N, 97.18°W
Report Text: KLCG 200135Z AUTO 19007KT 10SM OVC011 01/M01 A3008 RMK AO2 T00051013
Loading
Personal Weather Stations






























Interactive Weather Map New forecast layout! Learn more

10-Day Weather Forecast

Advertisements
Track Severe Weather on mobile